Time;durP1;ratioP1;P1;durP2;ratioP2;P2;SDS_P1;SDS_P2;PMS_P1;PMS_P2;Temp;Humidity;BMP_temperature;BMP_pressure;BME280_temperature;BME280_humidity;BME280_pressure;Samples;Min_cycle;Max_cycle;Signal;HPM_P1;HPM_P2
2022/09/09 00:02:00;;;;;;;14.07;8.98;;;16.00;99.90;;;;;;5152922;27;20050;-73
2022/09/09 00:04:27;;;;;;;13.30;8.38;;;16.00;99.90;;;;;;5175722;27;20043;-73
2022/09/09 00:07:32;;;;;;;13.60;9.23;;;15.90;99.90;;;;;;5176010;27;20041;-73
2022/09/09 00:10:36;;;;;;;12.70;9.10;;;15.90;99.90;;;;;;5134878;27;20055;-73
2022/09/09 00:13:33;;;;;;;13.43;8.60;;;15.90;99.90;;;;;;5071171;28;20059;-73
2022/09/09 00:16:19;;;;;;;14.30;8.52;;;15.90;99.90;;;;;;5169714;27;20080;-73
2022/09/09 00:18:51;;;;;;;12.73;9.40;;;15.80;99.90;;;;;;5134222;27;20387;-72
2022/09/09 00:21:18;;;;;;;10.85;8.77;;;15.80;99.90;;;;;;5156442;27;20070;-71
2022/09/09 00:23:54;;;;;;;16.23;9.55;;;15.80;99.90;;;;;;5155258;27;20070;-71
2022/09/09 00:26:44;;;;;;;12.45;8.80;;;15.90;99.90;;;;;;5138204;27;20067;-71
2022/09/09 00:29:20;;;;;;;13.02;9.20;;;15.70;99.90;;;;;;5161037;27;20416;-71
2022/09/09 00:31:47;;;;;;;12.90;9.15;;;15.70;99.90;;;;;;5169496;27;20086;-70
2022/09/09 00:34:19;;;;;;;15.15;9.48;;;15.80;99.90;;;;;;5174912;27;20073;-71
2022/09/09 00:36:47;;;;;;;13.88;9.60;;;15.70;99.90;;;;;;5175475;27;20047;-71
2022/09/09 00:39:37;;;;;;;13.40;9.18;;;15.70;99.90;;;;;;5170319;27;20102;-73
2022/09/09 00:42:03;;;;;;;14.23;9.43;;;15.60;99.90;;;;;;5158145;27;20379;-73
2022/09/09 00:44:35;;;;;;;12.05;9.63;;;15.60;99.90;;;;;;5175422;27;20034;-72
2022/09/09 00:47:34;;;;;;;11.18;8.55;;;15.60;99.90;;;;;;5145891;27;20071;-74
2022/09/09 00:50:11;;;;;;;12.95;8.63;;;15.60;99.90;;;;;;5130704;27;20049;-73
2022/09/09 00:52:52;;;;;;;12.43;8.30;;;15.60;99.90;;;;;;5154592;27;20042;-72
2022/09/09 00:55:41;;;;;;;12.85;7.72;;;15.60;99.90;;;;;;5154717;27;20046;-73
2022/09/09 00:58:08;;;;;;;10.98;7.60;;;15.50;99.90;;;;;;5140228;27;20403;-73
2022/09/09 01:00:40;;;;;;;11.63;7.88;;;15.50;99.90;;;;;;5171786;27;20042;-72
2022/09/09 01:03:24;;;;;;;11.98;8.00;;;15.60;99.90;;;;;;5175192;27;20049;-71
2022/09/09 01:06:03;;;;;;;11.18;6.50;;;15.60;99.90;;;;;;5155380;27;20386;-71
2022/09/09 01:08:50;;;;;;;8.90;6.50;;;15.60;99.90;;;;;;5152168;27;20057;-71
2022/09/09 01:11:21;;;;;;;9.88;6.53;;;15.60;99.90;;;;;;5135635;27;20049;-71
2022/09/09 01:13:49;;;;;;;12.02;6.78;;;15.50;99.90;;;;;;5154608;27;20463;-71
2022/09/09 01:16:17;;;;;;;11.20;7.10;;;15.50;99.90;;;;;;5170869;27;20113;-71
2022/09/09 01:18:49;;;;;;;11.68;7.15;;;15.50;99.90;;;;;;5154542;27;20440;-71
2022/09/09 01:21:23;;;;;;;11.55;7.63;;;15.50;99.90;;;;;;5170445;27;20043;-71
2022/09/09 01:24:13;;;;;;;10.68;6.88;;;15.50;99.90;;;;;;5174530;27;20038;-71
2022/09/09 01:26:44;;;;;;;9.95;7.40;;;15.50;99.90;;;;;;5160897;27;20485;-71
2022/09/09 01:29:14;;;;;;;10.20;7.15;;;15.40;99.90;;;;;;5154223;27;20050;-71
2022/09/09 01:31:59;;;;;;;11.10;7.45;;;15.40;99.90;;;;;;5153947;27;20107;-71
2022/09/09 01:34:29;;;;;;;11.82;7.38;;;15.40;99.90;;;;;;5168857;27;20118;-71
2022/09/09 01:37:11;;;;;;;10.90;6.95;;;15.60;99.90;;;;;;5146240;27;20043;-71
2022/09/09 01:39:40;;;;;;;9.60;6.72;;;15.40;99.90;;;;;;5154279;27;20046;-71
2022/09/09 01:42:08;;;;;;;11.75;6.70;;;15.60;99.90;;;;;;5154881;27;20046;-71
2022/09/09 01:44:36;;;;;;;11.30;7.03;;;15.30;99.90;;;;;;5154114;27;20035;-71
2022/09/09 01:47:02;;;;;;;11.13;7.00;;;15.30;99.90;;;;;;5153997;27;20051;-71
2022/09/09 01:49:28;;;;;;;8.55;7.05;;;15.40;99.90;;;;;;5135743;27;20087;-71
2022/09/09 01:51:55;;;;;;;14.63;7.40;;;15.30;99.90;;;;;;5153696;27;20080;-71
2022/09/09 01:54:23;;;;;;;10.75;7.05;;;15.30;99.90;;;;;;5153888;27;20047;-71
2022/09/09 01:57:22;;;;;;;10.32;7.50;;;15.30;99.90;;;;;;5153466;27;20089;-71
2022/09/09 02:00:09;;;;;;;11.63;7.40;;;15.30;99.90;;;;;;5157887;27;20053;-71
2022/09/09 02:02:34;;;;;;;10.52;7.10;;;15.20;99.90;;;;;;5141685;27;20066;-71
2022/09/09 02:05:26;;;;;;;12.02;7.78;;;15.30;99.90;;;;;;5178213;27;20065;-71
2022/09/09 02:08:00;;;;;;;12.68;7.78;;;15.30;99.90;;;;;;5163159;27;20144;-71
2022/09/09 02:10:31;;;;;;;15.27;8.20;;;15.30;99.90;;;;;;5178723;27;20046;-71
2022/09/09 02:13:24;;;;;;;12.02;8.18;;;15.30;99.90;;;;;;5135186;27;20043;-72
2022/09/09 02:15:55;;;;;;;13.27;8.68;;;15.30;99.90;;;;;;5146138;27;20050;-73
2022/09/09 02:18:30;;;;;;;14.88;8.88;;;15.30;99.90;;;;;;5159783;27;20094;-73
2022/09/09 02:20:58;;;;;;;14.10;9.52;;;15.30;99.90;;;;;;5177008;27;20042;-73
2022/09/09 02:23:24;;;;;;;12.57;9.50;;;15.30;99.90;;;;;;5159831;27;20046;-73
2022/09/09 02:25:53;;;;;;;13.60;9.68;;;15.30;99.90;;;;;;5156622;27;20042;-72
2022/09/09 02:28:21;;;;;;;12.52;9.30;;;15.70;99.90;;;;;;5142948;27;20035;-73
2022/09/09 02:30:54;;;;;;;14.88;10.00;;;15.20;99.90;;;;;;5175164;27;20526;-73
2022/09/09 02:33:24;;;;;;;13.32;10.50;;;15.70;99.90;;;;;;5178085;27;20038;-70
2022/09/09 02:35:52;;;;;;;18.42;10.05;;;15.10;99.90;;;;;;5144445;27;20042;-70
2022/09/09 02:38:21;;;;;;;15.32;10.13;;;15.20;99.90;;;;;;5159391;27;20049;-70
2022/09/09 02:40:47;;;;;;;14.30;9.75;;;15.60;99.90;;;;;;5177635;27;20038;-71
2022/09/09 02:43:16;;;;;;;12.65;9.70;;;15.20;99.90;;;;;;5178209;27;20042;-71
2022/09/09 02:45:57;;;;;;;13.73;9.80;;;15.20;99.90;;;;;;5175646;27;20046;-75
2022/09/09 02:48:45;;;;;;;16.35;10.20;;;15.50;99.90;;;;;;5161087;27;20384;-73
2022/09/09 02:51:44;;;;;;;12.63;10.30;;;15.20;99.90;;;;;;5177819;27;20174;-73
2022/09/09 02:54:30;;;;;;;11.80;9.00;;;15.40;99.90;;;;;;5125074;27;20054;-70
2022/09/09 02:57:01;;;;;;;12.93;9.90;;;15.10;99.90;;;;;;5160487;27;20051;-71
2022/09/09 02:59:27;;;;;;;13.23;9.43;;;15.10;99.90;;;;;;5151013;27;20047;-71
2022/09/09 03:01:53;;;;;;;14.05;9.45;;;15.80;99.90;;;;;;5156426;27;20087;-72
2022/09/09 03:04:19;;;;;;;14.85;9.32;;;15.10;99.90;;;;;;5143030;27;20038;-74
2022/09/09 03:06:44;;;;;;;16.45;8.98;;;15.80;99.90;;;;;;5177647;27;20061;-73
2022/09/09 03:09:10;;;;;;;13.50;8.90;;;15.10;99.90;;;;;;5178001;27;20039;-73
2022/09/09 03:11:36;;;;;;;12.82;9.50;;;15.20;99.90;;;;;;5157464;27;20118;-73
2022/09/09 03:14:02;;;;;;;14.07;9.43;;;15.20;99.90;;;;;;5140245;27;20154;-73
2022/09/09 03:16:28;;;;;;;11.10;8.38;;;15.10;99.90;;;;;;5137913;27;20498;-73
2022/09/09 03:18:53;;;;;;;14.18;8.82;;;15.50;99.90;;;;;;5147142;27;20074;-73
2022/09/09 03:21:19;;;;;;;13.40;8.80;;;15.10;99.90;;;;;;5157872;27;20478;-73
2022/09/09 03:23:44;;;;;;;14.80;9.05;;;15.20;99.90;;;;;;5156519;27;20042;-72
2022/09/09 03:26:10;;;;;;;13.55;8.90;;;15.20;99.90;;;;;;5158744;27;20035;-73
2022/09/09 03:28:36;;;;;;;12.35;8.20;;;15.10;99.90;;;;;;5148114;27;20047;-73
2022/09/09 03:31:03;;;;;;;13.82;8.15;;;15.20;99.90;;;;;;5172261;27;20054;-70
2022/09/09 03:33:29;;;;;;;12.48;8.18;;;15.20;99.90;;;;;;5157237;27;20042;-71
2022/09/09 03:35:56;;;;;;;10.38;7.40;;;15.20;99.90;;;;;;5158839;27;20066;-70
2022/09/09 03:38:24;;;;;;;14.32;7.88;;;15.40;99.90;;;;;;5169452;27;20047;-71
2022/09/09 03:40:55;;;;;;;10.80;8.23;;;15.10;99.90;;;;;;5156236;27;20042;-71
2022/09/09 03:43:24;;;;;;;14.25;7.15;;;15.20;99.90;;;;;;5155967;27;20039;-71
2022/09/09 03:45:50;;;;;;;12.18;7.93;;;15.10;99.90;;;;;;5170803;27;20050;-71
2022/09/09 03:48:17;;;;;;;12.43;6.82;;;15.20;99.90;;;;;;5176804;27;20368;-71
2022/09/09 03:50:51;;;;;;;10.88;6.22;;;15.20;99.90;;;;;;5153496;27;20069;-71
2022/09/09 03:53:19;;;;;;;9.45;5.75;;;15.40;99.90;;;;;;5172725;27;20038;-71
2022/09/09 03:55:50;;;;;;;11.13;5.90;;;15.20;99.90;;;;;;5175567;27;20111;-71
2022/09/09 03:58:18;;;;;;;6.95;5.30;;;15.70;99.90;;;;;;5134429;27;20150;-71
2022/09/09 04:00:53;;;;;;;9.85;5.18;;;15.20;99.90;;;;;;5165196;27;20046;-72
2022/09/09 04:03:19;;;;;;;8.38;4.88;;;15.50;99.90;;;;;;5157679;27;20038;-71
2022/09/09 04:05:44;;;;;;;8.70;4.70;;;15.30;99.90;;;;;;5171662;27;20046;-71
2022/09/09 04:08:11;;;;;;;7.88;4.47;;;15.30;99.90;;;;;;5150134;27;20478;-71
2022/09/09 04:10:37;;;;;;;7.90;3.95;;;15.30;99.90;;;;;;5175854;27;20049;-71
2022/09/09 04:13:04;;;;;;;8.48;4.20;;;15.50;99.90;;;;;;5175884;27;20026;-71
2022/09/09 04:15:30;;;;;;;9.57;4.43;;;15.80;99.90;;;;;;5174428;27;20351;-71
2022/09/09 04:17:56;;;;;;;7.93;3.60;;;15.40;99.90;;;;;;5140224;27;20061;-71
2022/09/09 04:20:22;;;;;;;7.90;4.10;;;15.60;99.90;;;;;;5169967;27;20046;-72
2022/09/09 04:22:49;;;;;;;8.93;3.75;;;15.50;99.90;;;;;;5158795;27;20505;-71
2022/09/09 04:25:15;;;;;;;9.38;3.72;;;16.00;99.90;;;;;;5167288;27;20539;-71
2022/09/09 04:27:40;;;;;;;7.43;3.70;;;15.50;99.90;;;;;;5158829;27;20046;-71
2022/09/09 04:30:07;;;;;;;8.85;3.75;;;15.60;99.90;;;;;;5116823;27;20042;-71
2022/09/09 04:32:36;;;;;;;7.75;3.50;;;15.50;99.90;;;;;;5161469;27;20082;-71
2022/09/09 04:35:02;;;;;;;9.48;3.83;;;15.90;99.90;;;;;;5160641;27;20375;-71
2022/09/09 04:37:28;;;;;;;7.70;3.63;;;15.50;99.90;;;;;;5159745;27;20074;-71
2022/09/09 04:39:54;;;;;;;6.78;3.40;;;15.50;99.90;;;;;;5172740;27;20076;-71
2022/09/09 04:42:19;;;;;;;8.07;3.90;;;15.50;99.90;;;;;;5173840;27;20041;-72
2022/09/09 04:44:45;;;;;;;6.50;3.78;;;15.50;99.90;;;;;;5175663;27;20555;-72
2022/09/09 04:47:11;;;;;;;9.02;4.30;;;15.50;99.90;;;;;;5158037;27;20034;-72
2022/09/09 04:49:38;;;;;;;6.85;4.07;;;15.50;99.90;;;;;;5151951;27;20042;-72
2022/09/09 04:52:04;;;;;;;8.88;4.75;;;15.50;99.90;;;;;;5135968;27;20117;-72
2022/09/09 04:54:29;;;;;;;8.45;4.63;;;15.40;99.90;;;;;;5153121;27;20600;-72
2022/09/09 04:56:55;;;;;;;9.32;4.88;;;15.60;99.90;;;;;;5163949;27;20053;-72
2022/09/09 04:59:21;;;;;;;9.32;4.90;;;15.50;99.90;;;;;;5135607;27;20046;-72
2022/09/09 05:01:49;;;;;;;8.00;4.80;;;15.50;99.90;;;;;;5164985;27;20118;-72
2022/09/09 05:04:15;;;;;;;8.55;4.80;;;15.50;99.90;;;;;;5140205;27;20490;-72
2022/09/09 05:06:42;;;;;;;8.55;5.28;;;16.10;99.90;;;;;;5134997;27;20676;-72
2022/09/09 05:09:08;;;;;;;11.90;6.35;;;15.50;99.90;;;;;;5166279;27;20089;-72
2022/09/09 05:11:36;;;;;;;10.90;5.57;;;15.50;99.90;;;;;;5156245;27;20363;-72
2022/09/09 05:14:02;;;;;;;10.13;5.90;;;16.30;99.90;;;;;;5138925;27;20127;-72
2022/09/09 05:16:29;;;;;;;10.35;6.00;;;15.50;99.90;;;;;;5167855;27;20133;-72
2022/09/09 05:18:55;;;;;;;9.35;5.75;;;15.50;99.90;;;;;;5134955;27;20039;-72
2022/09/09 05:21:23;;;;;;;9.50;6.70;;;15.40;99.90;;;;;;5143835;27;20088;-72
2022/09/09 05:23:50;;;;;;;8.88;6.22;;;15.60;99.90;;;;;;5147001;27;20137;-72
2022/09/09 05:26:18;;;;;;;11.50;7.05;;;15.50;99.90;;;;;;5154154;27;20470;-70
2022/09/09 05:28:44;;;;;;;9.98;6.70;;;15.50;99.90;;;;;;5146075;27;20110;-71
2022/09/09 05:31:12;;;;;;;9.95;7.03;;;15.40;99.90;;;;;;5153649;27;20363;-70
2022/09/09 05:33:42;;;;;;;11.57;7.63;;;15.40;99.90;;;;;;5157390;27;20083;-71
2022/09/09 05:36:13;;;;;;;11.43;7.05;;;15.50;99.90;;;;;;5162888;27;20099;-71
2022/09/09 05:38:40;;;;;;;11.88;7.28;;;15.40;99.90;;;;;;5168898;27;20038;-70
2022/09/09 05:41:06;;;;;;;12.68;7.85;;;15.60;99.90;;;;;;5167771;27;20077;-71
2022/09/09 05:43:34;;;;;;;13.70;7.85;;;15.40;99.90;;;;;;5159490;27;20035;-77
2022/09/09 05:46:01;;;;;;;11.32;8.10;;;15.40;99.90;;;;;;5161164;27;20038;-70
2022/09/09 05:48:31;;;;;;;13.25;8.80;;;15.60;99.90;;;;;;5162644;27;20403;-69
2022/09/09 05:50:59;;;;;;;11.00;8.02;;;15.40;99.90;;;;;;5153978;27;20164;-70
2022/09/09 05:53:25;;;;;;;12.05;8.85;;;15.40;99.90;;;;;;5153568;27;20049;-69
2022/09/09 05:55:57;;;;;;;12.88;8.50;;;15.40;99.90;;;;;;5153685;27;20034;-70
2022/09/09 05:58:24;;;;;;;12.77;8.95;;;15.30;99.90;;;;;;5153575;27;20126;-70
2022/09/09 06:00:50;;;;;;;13.15;9.40;;;15.30;99.90;;;;;;5152522;27;20035;-71
2022/09/09 06:03:16;;;;;;;13.13;9.43;;;15.60;99.90;;;;;;5154900;27;20429;-70
2022/09/09 06:05:42;;;;;;;13.43;8.88;;;15.60;99.90;;;;;;5153966;27;20070;-70
2022/09/09 06:08:08;;;;;;;14.27;9.07;;;15.30;99.90;;;;;;5172212;27;20100;-70
2022/09/09 06:10:33;;;;;;;10.90;8.98;;;16.00;99.90;;;;;;5173642;27;20027;-71
2022/09/09 06:12:59;;;;;;;13.15;8.90;;;15.40;99.90;;;;;;5172252;27;20043;-70
2022/09/09 06:15:26;;;;;;;11.32;8.70;;;15.50;99.90;;;;;;5174328;27;20065;-70
2022/09/09 06:17:55;;;;;;;12.02;8.95;;;15.50;99.90;;;;;;5155497;27;20051;-70
2022/09/09 06:20:22;;;;;;;14.48;9.38;;;15.50;99.90;;;;;;5153765;27;20045;-70
2022/09/09 06:22:48;;;;;;;14.82;8.68;;;15.50;99.90;;;;;;5134693;27;20383;-70
2022/09/09 06:25:14;;;;;;;14.43;9.18;;;15.80;99.90;;;;;;5139886;27;20549;-70
2022/09/09 06:27:40;;;;;;;15.23;9.15;;;15.60;99.90;;;;;;5113839;28;20149;-70
2022/09/09 06:30:07;;;;;;;10.85;8.35;;;15.60;99.90;;;;;;5116889;27;20042;-70
2022/09/09 06:32:34;;;;;;;12.65;8.55;;;15.60;99.90;;;;;;5133418;27;20058;-70
2022/09/09 06:35:01;;;;;;;11.00;8.88;;;15.70;99.90;;;;;;5153079;27;20596;-71
2022/09/09 06:37:27;;;;;;;11.77;8.25;;;15.90;99.90;;;;;;5156395;27;20068;-70
2022/09/09 06:39:54;;;;;;;13.90;8.07;;;15.50;99.90;;;;;;5142846;27;20039;-70
2022/09/09 06:42:20;;;;;;;11.75;8.30;;;16.40;99.90;;;;;;5152438;27;20176;-70
2022/09/09 06:44:45;;;;;;;11.48;8.50;;;15.60;99.90;;;;;;5153160;27;20178;-71
2022/09/09 06:47:11;;;;;;;14.82;10.73;;;15.70;99.90;;;;;;5156620;27;20114;-70
2022/09/09 06:49:37;;;;;;;12.48;8.88;;;15.70;99.90;;;;;;5155604;27;20153;-70
2022/09/09 06:52:02;;;;;;;12.32;8.25;;;15.90;99.90;;;;;;5156712;27;20047;-70
2022/09/09 06:54:28;;;;;;;11.32;7.97;;;15.80;99.90;;;;;;5160660;27;20034;-70
2022/09/09 06:56:53;;;;;;;11.77;8.00;;;15.80;99.90;;;;;;5156333;27;20055;-71
2022/09/09 06:59:19;;;;;;;11.57;7.93;;;15.80;99.90;;;;;;5156888;27;20050;-71
2022/09/09 07:01:46;;;;;;;10.60;7.18;;;15.80;99.90;;;;;;5156715;27;20114;-71
2022/09/09 07:04:13;;;;;;;10.77;7.18;;;15.80;99.90;;;;;;5161019;27;20402;-71
2022/09/09 07:06:42;;;;;;;10.85;7.53;;;15.90;99.90;;;;;;5156194;27;20447;-71
2022/09/09 07:09:10;;;;;;;11.85;7.15;;;16.00;99.90;;;;;;5120952;27;20047;-72
2022/09/09 07:11:44;;;;;;;12.80;7.78;;;15.80;99.90;;;;;;5156401;27;20039;-72
2022/09/09 07:14:13;;;;;;;13.02;7.55;;;15.80;99.90;;;;;;5120381;27;20072;-71
2022/09/09 07:16:40;;;;;;;8.50;6.68;;;15.80;99.90;;;;;;5132212;27;20479;-72
2022/09/09 07:19:06;;;;;;;8.30;7.10;;;16.00;99.90;;;;;;5151611;27;20126;-71
2022/09/09 07:21:33;;;;;;;11.07;6.97;;;15.80;99.90;;;;;;5157403;27;20186;-71
2022/09/09 07:23:59;;;;;;;10.93;7.35;;;15.90;99.90;;;;;;5168824;27;20435;-71
2022/09/09 07:26:31;;;;;;;12.85;7.40;;;15.90;99.90;;;;;;5158478;27;20056;-72
2022/09/09 07:28:57;;;;;;;10.50;7.45;;;15.90;99.90;;;;;;5177371;27;20038;-71
2022/09/09 07:31:26;;;;;;;13.13;7.20;;;15.90;99.90;;;;;;5157928;27;20046;-71
2022/09/09 07:33:52;;;;;;;11.93;7.03;;;15.90;99.90;;;;;;5158431;27;20050;-71
2022/09/09 07:36:21;;;;;;;11.43;7.07;;;16.00;99.90;;;;;;5176803;27;20042;-72
2022/09/09 07:38:53;;;;;;;11.18;7.07;;;16.10;99.90;;;;;;5175754;27;20038;-72
2022/09/09 07:41:34;;;;;;;9.50;6.70;;;16.10;99.90;;;;;;5135214;27;20058;-71
2022/09/09 07:44:04;;;;;;;13.13;6.82;;;16.20;99.90;;;;;;5135235;27;20042;-71
2022/09/09 07:46:29;;;;;;;11.30;6.53;;;16.20;99.90;;;;;;5116984;27;20058;-70
2022/09/09 07:48:56;;;;;;;9.05;6.80;;;16.30;99.90;;;;;;5156978;27;20112;-70
2022/09/09 07:51:27;;;;;;;8.90;6.45;;;16.40;99.90;;;;;;5150620;27;20053;-70
2022/09/09 07:53:59;;;;;;;11.52;6.53;;;16.40;99.90;;;;;;5153958;27;20047;-71
2022/09/09 07:56:26;;;;;;;9.63;6.45;;;16.80;99.90;;;;;;5155383;27;20102;-71
2022/09/09 07:58:53;;;;;;;12.38;6.88;;;16.60;99.90;;;;;;5155549;27;20098;-72
2022/09/09 08:01:22;;;;;;;8.82;5.97;;;16.60;99.90;;;;;;5155467;27;20546;-71
2022/09/09 08:03:59;;;;;;;10.88;6.75;;;17.00;99.90;;;;;;5155370;27;20043;-71
2022/09/09 08:06:26;;;;;;;9.75;5.90;;;16.80;99.90;;;;;;5155551;27;20057;-71
2022/09/09 08:08:54;;;;;;;8.95;5.70;;;16.90;99.90;;;;;;5164515;27;20046;-71
2022/09/09 08:11:24;;;;;;;9.68;5.80;;;16.90;99.90;;;;;;5157610;27;20053;-71
2022/09/09 08:13:51;;;;;;;8.30;5.55;;;17.00;99.90;;;;;;5157804;27;20390;-71
2022/09/09 08:16:27;;;;;;;8.52;5.55;;;17.10;99.90;;;;;;5175963;27;20106;-71
2022/09/09 08:18:53;;;;;;;9.95;5.72;;;17.20;99.90;;;;;;5176035;27;20046;-71
2022/09/09 08:21:24;;;;;;;8.82;5.60;;;17.30;99.90;;;;;;5155387;27;20121;-71
2022/09/09 08:23:53;;;;;;;10.10;6.22;;;17.30;99.90;;;;;;5175893;27;20362;-71
2022/09/09 08:26:30;;;;;;;10.18;5.80;;;17.50;99.90;;;;;;5171681;27;20038;-71
2022/09/09 08:28:58;;;;;;;9.55;5.63;;;17.60;99.90;;;;;;5135888;27;20050;-71
2022/09/09 08:31:27;;;;;;;8.07;5.47;;;17.70;99.90;;;;;;5164015;27;20051;-70
2022/09/09 08:33:54;;;;;;;8.63;5.50;;;17.80;99.90;;;;;;5136102;27;20058;-71
2022/09/09 08:36:23;;;;;;;8.90;4.97;;;18.00;99.90;;;;;;5154486;27;20399;-71
2022/09/09 08:38:51;;;;;;;8.70;5.10;;;18.20;99.90;;;;;;5153068;27;20037;-71
2022/09/09 08:41:37;;;;;;;11.32;4.85;;;18.40;99.90;;;;;;5154729;27;20046;-71
2022/09/09 08:44:15;;;;;;;8.82;5.25;;;18.70;99.90;;;;;;5155038;27;20043;-71
2022/09/09 08:46:53;;;;;;;8.75;4.90;;;19.00;99.90;;;;;;5175147;27;20042;-69
2022/09/09 08:50:10;;;;;;;9.05;4.38;;;18.80;99.90;;;;;;5156885;27;20042;-70
2022/09/09 08:52:50;;;;;;;9.15;4.35;;;18.60;99.90;;;;;;5131432;27;20046;-70
2022/09/09 08:55:25;;;;;;;8.20;4.50;;;18.50;99.90;;;;;;5175570;27;20134;-71
2022/09/09 08:57:54;;;;;;;7.78;4.50;;;18.50;99.90;;;;;;5154802;27;20167;-71
2022/09/09 09:00:20;;;;;;;7.68;4.78;;;18.50;99.90;;;;;;5175169;27;20042;-70
2022/09/09 09:03:30;;;;;;;7.63;4.22;;;18.60;99.90;;;;;;5155982;27;20048;-70
2022/09/09 09:06:01;;;;;;;9.05;3.95;;;18.50;99.90;;;;;;5115349;27;20051;-68
2022/09/09 09:08:51;;;;;;;9.43;4.53;;;18.50;99.90;;;;;;5132975;27;20137;-69
2022/09/09 09:11:17;;;;;;;8.60;4.15;;;18.40;99.90;;;;;;5086084;27;20052;-70
2022/09/09 09:13:57;;;;;;;12.73;4.47;;;18.40;99.90;;;;;;5121577;27;20073;-71
2022/09/09 09:16:32;;;;;;;8.95;4.35;;;18.40;99.90;;;;;;5153111;27;20347;-70
2022/09/09 09:18:58;;;;;;;11.25;4.25;;;18.50;99.90;;;;;;5135597;27;20387;-69
2022/09/09 09:21:44;;;;;;;8.10;4.35;;;19.00;99.90;;;;;;5153627;27;20047;-71
2022/09/09 09:24:33;;;;;;;9.40;4.15;;;18.60;99.90;;;;;;5135222;27;20074;-71
2022/09/09 09:27:11;;;;;;;8.77;4.10;;;18.60;99.90;;;;;;5134659;27;20043;-71
2022/09/09 09:29:39;;;;;;;9.05;4.03;;;18.70;99.90;;;;;;5153470;27;20053;-71
2022/09/09 09:32:07;;;;;;;9.15;4.20;;;18.90;99.90;;;;;;5139855;27;20050;-71
2022/09/09 09:34:32;;;;;;;11.73;4.82;;;19.00;99.90;;;;;;5137885;27;20039;-71
2022/09/09 09:37:03;;;;;;;10.20;4.25;;;19.20;99.90;;;;;;5174324;27;20034;-71
2022/09/09 09:39:36;;;;;;;8.88;3.95;;;19.50;99.90;;;;;;5174364;27;20038;-71
2022/09/09 09:42:17;;;;;;;13.13;3.80;;;19.60;99.90;;;;;;5153622;27;20045;-71
2022/09/09 09:44:43;;;;;;;6.93;3.95;;;19.70;99.90;;;;;;5173455;27;20049;-71
2022/09/09 09:47:13;;;;;;;9.43;4.32;;;19.70;99.90;;;;;;5174273;27;20038;-71
2022/09/09 09:49:39;;;;;;;8.23;4.38;;;19.60;99.90;;;;;;5154621;27;20088;-71
2022/09/09 09:52:07;;;;;;;9.50;4.07;;;19.40;99.90;;;;;;5148827;27;20157;-70
2022/09/09 09:54:37;;;;;;;9.48;4.00;;;19.40;99.90;;;;;;5148899;27;20047;-71
2022/09/09 09:57:14;;;;;;;10.65;3.47;;;19.50;99.90;;;;;;5132443;28;20084;-70
2022/09/09 09:59:41;;;;;;;11.25;3.80;;;19.70;99.90;;;;;;5153440;27;20062;-70
2022/09/09 10:02:25;;;;;;;9.95;3.85;;;20.00;99.90;;;;;;5152853;27;20425;-70
2022/09/09 10:05:01;;;;;;;13.63;3.65;;;20.00;99.90;;;;;;5134577;27;20046;-70
2022/09/09 10:07:27;;;;;;;10.55;3.80;;;19.80;99.90;;;;;;5152758;27;20047;-70
2022/09/09 10:09:57;;;;;;;9.77;3.65;;;19.70;99.90;;;;;;5152797;27;20070;-70
2022/09/09 10:12:28;;;;;;;10.25;3.70;;;19.70;99.90;;;;;;5142676;27;20053;-70
2022/09/09 10:15:25;;;;;;;10.25;3.10;;;19.60;99.90;;;;;;5173287;27;20362;-69
2022/09/09 10:17:57;;;;;;;13.02;3.10;;;19.70;99.90;;;;;;5172581;27;20454;-70
2022/09/09 10:20:40;;;;;;;11.38;3.17;;;19.90;99.90;;;;;;5155060;27;20038;-70
2022/09/09 10:23:12;;;;;;;9.75;3.10;;;19.90;99.90;;;;;;5160052;27;20475;-72
2022/09/09 10:26:01;;;;;;;10.05;3.08;;;19.80;99.90;;;;;;5174915;27;20034;-70
2022/09/09 10:29:00;;;;;;;10.63;3.00;;;19.70;99.90;;;;;;5143343;27;20046;-75
2022/09/09 10:31:41;;;;;;;9.77;2.63;;;19.60;99.90;;;;;;5165618;27;20058;-75
2022/09/09 10:34:36;;;;;;;10.48;2.78;;;19.60;99.90;;;;;;5174952;27;20050;-76
2022/09/09 10:37:18;;;;;;;12.13;2.97;;;19.50;99.90;;;;;;5041302;27;20053;-75
2022/09/09 10:39:44;;;;;;;8.30;2.70;;;19.40;99.90;;;;;;5133313;27;20126;-75
2022/09/09 10:42:13;;;;;;;10.00;2.95;;;19.40;99.90;;;;;;5114136;27;20533;-75
2022/09/09 10:44:50;;;;;;;11.65;2.55;;;19.40;99.90;;;;;;5133485;27;20075;-75
2022/09/09 10:47:43;;;;;;;8.25;2.30;;;19.70;99.90;;;;;;5154518;27;20043;-76
2022/09/09 10:50:35;;;;;;;9.10;2.28;;;19.80;99.90;;;;;;5153886;27;20047;-76
2022/09/09 10:53:15;;;;;;;7.65;2.13;;;19.90;99.90;;;;;;5153571;27;20076;-76
2022/09/09 10:55:48;;;;;;;6.63;2.30;;;19.80;99.90;;;;;;5135286;27;20047;-76
2022/09/09 10:58:23;;;;;;;13.93;2.72;;;19.90;99.90;;;;;;5153857;27;20047;-75
2022/09/09 11:00:53;;;;;;;8.95;2.38;;;20.10;99.90;;;;;;5113844;27;20049;-76
2022/09/09 11:03:24;;;;;;;8.40;2.13;;;20.40;99.90;;;;;;5133050;27;20054;-76
2022/09/09 11:05:56;;;;;;;9.15;2.50;;;20.90;99.90;;;;;;5114338;27;20057;-75
2022/09/09 11:08:26;;;;;;;7.55;2.15;;;21.40;99.90;;;;;;5116493;27;20126;-76
2022/09/09 11:11:03;;;;;;;7.78;2.05;;;21.40;99.90;;;;;;5174154;27;20046;-76
2022/09/09 11:13:39;;;;;;;9.43;2.28;;;21.40;99.90;;;;;;5165540;27;20100;-75
2022/09/09 11:16:43;;;;;;;7.72;2.10;;;21.50;99.90;;;;;;5164792;27;20370;-75
2022/09/09 11:19:34;;;;;;;8.57;1.98;;;21.60;99.90;;;;;;5117455;27;20057;-70
2022/09/09 11:22:07;;;;;;;8.63;1.90;;;21.50;99.90;;;;;;5158090;27;20422;-70
2022/09/09 11:24:45;;;;;;;6.63;1.98;;;21.70;99.90;;;;;;5177162;27;20045;-70
2022/09/09 11:27:16;;;;;;;6.20;1.73;;;22.00;99.90;;;;;;5154800;27;20042;-70
2022/09/09 11:29:53;;;;;;;6.65;1.83;;;22.30;99.90;;;;;;5116952;27;20514;-70
2022/09/09 11:32:39;;;;;;;8.73;2.10;;;22.50;99.90;;;;;;5134234;27;20105;-70
2022/09/09 11:35:40;;;;;;;6.10;2.00;;;22.70;99.90;;;;;;5145058;27;20105;-72
2022/09/09 11:38:25;;;;;;;5.65;1.55;;;22.90;99.90;;;;;;5111916;27;20057;-71
2022/09/09 11:41:03;;;;;;;9.47;1.70;;;23.30;99.90;;;;;;5135153;27;20274;-72
2022/09/09 11:43:52;;;;;;;8.15;2.20;;;23.50;99.90;;;;;;5116350;27;20078;-71
2022/09/09 11:46:21;;;;;;;8.00;1.83;;;23.50;99.90;;;;;;5134855;27;20039;-71
2022/09/09 11:49:25;;;;;;;5.72;1.92;;;23.20;99.90;;;;;;5134574;27;20090;-70
2022/09/09 11:51:50;;;;;;;7.53;2.00;;;23.10;99.90;;;;;;5134635;27;20465;-70
2022/09/09 11:54:32;;;;;;;4.75;1.70;;;22.90;99.90;;;;;;5133731;27;20034;-70
2022/09/09 11:56:58;;;;;;;8.90;1.95;;;22.70;99.90;;;;;;5133257;27;20050;-71
2022/09/09 11:59:30;;;;;;;7.03;2.00;;;22.60;99.90;;;;;;5134857;27;20050;-70
2022/09/09 12:02:01;;;;;;;6.43;1.90;;;22.60;99.90;;;;;;5134091;27;20043;-70
2022/09/09 12:04:31;;;;;;;6.85;2.10;;;22.70;99.90;;;;;;5142397;27;20039;-70
2022/09/09 12:07:20;;;;;;;7.20;1.90;;;22.80;99.90;;;;;;5159691;27;20081;-71
2022/09/09 12:09:56;;;;;;;6.28;2.20;;;22.80;99.90;;;;;;5121117;27;20038;-91
2022/09/09 12:12:29;;;;;;;5.93;1.77;;;22.60;99.90;;;;;;5121767;27;20082;-91
2022/09/09 12:15:02;;;;;;;7.63;2.08;;;22.70;99.90;;;;;;5121926;27;20042;-90
2022/09/09 12:17:31;;;;;;;6.65;1.67;;;23.20;99.90;;;;;;5138027;27;20043;-90
2022/09/09 12:20:08;;;;;;;5.53;1.70;;;23.30;99.90;;;;;;5138963;27;20039;-91
2022/09/09 12:22:56;;;;;;;5.50;1.88;;;23.20;99.90;;;;;;5136888;27;20086;-90
2022/09/09 12:25:40;;;;;;;7.15;1.90;;;23.20;99.90;;;;;;5139175;27;20133;-86
2022/09/09 12:28:29;;;;;;;9.40;2.20;;;22.50;99.90;;;;;;5172079;27;20050;-72
2022/09/09 12:31:10;;;;;;;4.22;1.65;;;22.70;99.90;;;;;;5175483;27;20054;-72
2022/09/09 12:33:42;;;;;;;6.65;1.80;;;22.30;99.90;;;;;;5175762;27;20042;-72
2022/09/09 12:36:13;;;;;;;6.55;1.90;;;22.10;99.90;;;;;;5175806;27;20042;-71
2022/09/09 12:38:41;;;;;;;7.90;1.70;;;22.00;99.90;;;;;;5137668;27;20046;-71
2022/09/09 12:41:26;;;;;;;5.72;1.80;;;21.90;99.90;;;;;;5175203;27;20080;-72
2022/09/09 12:44:08;;;;;;;9.10;2.10;;;21.70;99.90;;;;;;5164154;27;20122;-72
2022/09/09 12:46:39;;;;;;;5.18;1.70;;;21.70;99.90;;;;;;5154329;27;20035;-72
2022/09/09 12:49:06;;;;;;;6.55;1.90;;;21.80;99.90;;;;;;5157168;27;20042;-72
2022/09/09 12:51:33;;;;;;;7.75;2.10;;;21.80;99.90;;;;;;5140738;27;20463;-72
2022/09/09 12:53:59;;;;;;;7.68;2.03;;;21.80;99.90;;;;;;5134839;27;20047;-72
2022/09/09 12:56:28;;;;;;;8.43;2.15;;;21.70;99.90;;;;;;5141421;27;20050;-72
2022/09/09 12:58:56;;;;;;;7.93;1.92;;;21.70;99.90;;;;;;5097961;27;20070;-72
2022/09/09 13:01:32;;;;;;;6.75;1.90;;;21.60;99.90;;;;;;5115079;27;20079;-72
2022/09/09 13:03:58;;;;;;;;;;;21.60;99.90;;;;;;5133771;27;20043;-72
2022/09/09 13:06:28;;;;;;;8.23;2.33;;;21.80;99.90;;;;;;5133291;27;20001;-73
2022/09/09 13:08:56;;;;;;;8.13;1.85;;;22.00;99.90;;;;;;5133262;27;20074;-71